sensor_id;sensor_type;location;lat;lon;timestamp;temperature;humidity
12907;DHT22;6521;50.498;8.474;2024-03-06T00:00:37;6.87;88.27
12907;DHT22;6521;50.498;8.474;2024-03-06T00:03:09;6.83;88.23
12907;DHT22;6521;50.498;8.474;2024-03-06T00:05:40;6.87;88.27
12907;DHT22;6521;50.498;8.474;2024-03-06T00:08:12;6.93;88.22
12907;DHT22;6521;50.498;8.474;2024-03-06T00:10:43;6.94;88.13
12907;DHT22;6521;50.498;8.474;2024-03-06T00:13:15;6.96;88.08
12907;DHT22;6521;50.498;8.474;2024-03-06T00:15:46;6.89;88.05
12907;DHT22;6521;50.498;8.474;2024-03-06T00:18:19;6.86;88.01
12907;DHT22;6521;50.498;8.474;2024-03-06T00:20:52;6.92;87.99
12907;DHT22;6521;50.498;8.474;2024-03-06T00:23:24;6.84;87.98
12907;DHT22;6521;50.498;8.474;2024-03-06T00:25:55;6.84;88.04
12907;DHT22;6521;50.498;8.474;2024-03-06T00:28:25;6.83;88.08
12907;DHT22;6521;50.498;8.474;2024-03-06T00:30:57;6.87;88.11
12907;DHT22;6521;50.498;8.474;2024-03-06T00:33:29;6.90;88.14
12907;DHT22;6521;50.498;8.474;2024-03-06T00:36:01;6.87;88.10
12907;DHT22;6521;50.498;8.474;2024-03-06T00:38:32;6.86;88.06
12907;DHT22;6521;50.498;8.474;2024-03-06T00:41:02;6.82;88.08
12907;DHT22;6521;50.498;8.474;2024-03-06T00:43:34;6.83;88.09
12907;DHT22;6521;50.498;8.474;2024-03-06T00:46:15;6.83;87.93
12907;DHT22;6521;50.498;8.474;2024-03-06T00:48:46;6.82;88.00
12907;DHT22;6521;50.498;8.474;2024-03-06T00:51:17;6.76;87.97
12907;DHT22;6521;50.498;8.474;2024-03-06T00:53:48;6.77;87.98
12907;DHT22;6521;50.498;8.474;2024-03-06T00:56:20;6.66;88.09
12907;DHT22;6521;50.498;8.474;2024-03-06T00:58:51;6.69;88.18
12907;DHT22;6521;50.498;8.474;2024-03-06T01:01:22;6.59;88.33
12907;DHT22;6521;50.498;8.474;2024-03-06T01:03:53;6.56;88.45
12907;DHT22;6521;50.498;8.474;2024-03-06T01:06:23;6.57;88.44
12907;DHT22;6521;50.498;8.474;2024-03-06T01:08:54;6.62;88.37
12907;DHT22;6521;50.498;8.474;2024-03-06T01:11:25;6.56;88.36
12907;DHT22;6521;50.498;8.474;2024-03-06T01:13:56;6.56;88.24
12907;DHT22;6521;50.498;8.474;2024-03-06T01:16:27;6.48;88.44
12907;DHT22;6521;50.498;8.474;2024-03-06T01:19:02;6.49;88.53
12907;DHT22;6521;50.498;8.474;2024-03-06T01:21:35;6.45;88.61
12907;DHT22;6521;50.498;8.474;2024-03-06T01:24:06;6.48;88.64
12907;DHT22;6521;50.498;8.474;2024-03-06T01:26:37;6.49;88.63
12907;DHT22;6521;50.498;8.474;2024-03-06T01:29:08;6.53;88.65
12907;DHT22;6521;50.498;8.474;2024-03-06T01:31:39;6.56;88.62
12907;DHT22;6521;50.498;8.474;2024-03-06T01:34:12;6.56;88.66
12907;DHT22;6521;50.498;8.474;2024-03-06T01:36:43;6.55;88.65
12907;DHT22;6521;50.498;8.474;2024-03-06T01:39:14;6.55;88.66
12907;DHT22;6521;50.498;8.474;2024-03-06T01:41:50;6.55;88.70
12907;DHT22;6521;50.498;8.474;2024-03-06T01:44:22;6.55;88.72
12907;DHT22;6521;50.498;8.474;2024-03-06T01:46:53;6.53;88.66
12907;DHT22;6521;50.498;8.474;2024-03-06T01:49:26;6.55;88.68
12907;DHT22;6521;50.498;8.474;2024-03-06T01:51:58;6.50;88.69
12907;DHT22;6521;50.498;8.474;2024-03-06T01:54:33;6.48;88.77
12907;DHT22;6521;50.498;8.474;2024-03-06T01:57:06;6.48;88.76
12907;DHT22;6521;50.498;8.474;2024-03-06T01:59:37;6.44;88.80
12907;DHT22;6521;50.498;8.474;2024-03-06T02:02:11;6.45;88.80
12907;DHT22;6521;50.498;8.474;2024-03-06T02:04:42;6.48;88.75
12907;DHT22;6521;50.498;8.474;2024-03-06T02:07:14;6.49;88.77
12907;DHT22;6521;50.498;8.474;2024-03-06T02:09:48;6.48;88.75
12907;DHT22;6521;50.498;8.474;2024-03-06T02:12:28;6.44;88.73
12907;DHT22;6521;50.498;8.474;2024-03-06T02:15:00;6.42;88.79
12907;DHT22;6521;50.498;8.474;2024-03-06T02:17:31;6.39;88.80
12907;DHT22;6521;50.498;8.474;2024-03-06T02:20:02;6.41;88.81
12907;DHT22;6521;50.498;8.474;2024-03-06T02:22:36;6.34;88.78
12907;DHT22;6521;50.498;8.474;2024-03-06T02:25:07;6.32;88.79
12907;DHT22;6521;50.498;8.474;2024-03-06T02:27:42;6.26;88.73
12907;DHT22;6521;50.498;8.474;2024-03-06T02:30:13;6.21;88.63
12907;DHT22;6521;50.498;8.474;2024-03-06T02:32:46;6.17;88.63
12907;DHT22;6521;50.498;8.474;2024-03-06T02:35:21;6.15;88.58
12907;DHT22;6521;50.498;8.474;2024-03-06T02:37:53;6.17;88.54
12907;DHT22;6521;50.498;8.474;2024-03-06T02:40:23;6.13;88.56
12907;DHT22;6521;50.498;8.474;2024-03-06T02:42:55;6.08;88.52
12907;DHT22;6521;50.498;8.474;2024-03-06T02:45:26;6.10;88.56
12907;DHT22;6521;50.498;8.474;2024-03-06T02:47:58;6.14;88.49
12907;DHT22;6521;50.498;8.474;2024-03-06T02:50:29;6.10;88.54
12907;DHT22;6521;50.498;8.474;2024-03-06T02:53:00;6.07;88.52
12907;DHT22;6521;50.498;8.474;2024-03-06T02:55:31;6.05;88.63
12907;DHT22;6521;50.498;8.474;2024-03-06T02:58:02;6.04;88.63
12907;DHT22;6521;50.498;8.474;2024-03-06T03:00:33;6.05;88.63
12907;DHT22;6521;50.498;8.474;2024-03-06T03:03:05;6.01;88.62
12907;DHT22;6521;50.498;8.474;2024-03-06T03:05:36;5.95;88.74
12907;DHT22;6521;50.498;8.474;2024-03-06T03:08:09;5.95;88.83
12907;DHT22;6521;50.498;8.474;2024-03-06T03:10:42;5.93;88.81
12907;DHT22;6521;50.498;8.474;2024-03-06T03:13:13;5.87;88.87
12907;DHT22;6521;50.498;8.474;2024-03-06T03:15:44;5.90;88.94
12907;DHT22;6521;50.498;8.474;2024-03-06T03:18:17;5.87;89.02
12907;DHT22;6521;50.498;8.474;2024-03-06T03:20:51;5.86;89.06
12907;DHT22;6521;50.498;8.474;2024-03-06T03:23:22;5.87;89.16
12907;DHT22;6521;50.498;8.474;2024-03-06T03:25:55;5.93;89.14
12907;DHT22;6521;50.498;8.474;2024-03-06T03:28:26;5.98;89.14
12907;DHT22;6521;50.498;8.474;2024-03-06T03:30:58;5.95;89.05
12907;DHT22;6521;50.498;8.474;2024-03-06T03:33:29;6.01;89.05
12907;DHT22;6521;50.498;8.474;2024-03-06T03:36:08;6.04;88.97
12907;DHT22;6521;50.498;8.474;2024-03-06T03:38:39;6.00;89.07
12907;DHT22;6521;50.498;8.474;2024-03-06T03:41:12;6.10;89.02
12907;DHT22;6521;50.498;8.474;2024-03-06T03:43:43;6.07;89.06
12907;DHT22;6521;50.498;8.474;2024-03-06T03:46:14;6.10;89.12
12907;DHT22;6521;50.498;8.474;2024-03-06T03:48:52;6.10;89.19
12907;DHT22;6521;50.498;8.474;2024-03-06T03:51:25;6.10;89.30
12907;DHT22;6521;50.498;8.474;2024-03-06T03:53:56;6.14;89.33
12907;DHT22;6521;50.498;8.474;2024-03-06T03:56:31;6.20;89.35
12907;DHT22;6521;50.498;8.474;2024-03-06T03:59:02;6.20;89.35
12907;DHT22;6521;50.498;8.474;2024-03-06T04:01:35;6.21;89.40
12907;DHT22;6521;50.498;8.474;2024-03-06T04:04:05;6.18;89.49
12907;DHT22;6521;50.498;8.474;2024-03-06T04:06:38;6.18;89.52
12907;DHT22;6521;50.498;8.474;2024-03-06T04:09:12;6.25;89.55
12907;DHT22;6521;50.498;8.474;2024-03-06T04:11:46;6.22;89.58
12907;DHT22;6521;50.498;8.474;2024-03-06T04:14:23;6.22;89.63
12907;DHT22;6521;50.498;8.474;2024-03-06T04:16:53;6.26;89.56
12907;DHT22;6521;50.498;8.474;2024-03-06T04:19:25;6.26;89.56
12907;DHT22;6521;50.498;8.474;2024-03-06T04:21:57;6.29;89.53
12907;DHT22;6521;50.498;8.474;2024-03-06T04:24:28;6.24;89.56
12907;DHT22;6521;50.498;8.474;2024-03-06T04:26:59;6.22;89.69
12907;DHT22;6521;50.498;8.474;2024-03-06T04:29:30;6.21;89.72
12907;DHT22;6521;50.498;8.474;2024-03-06T04:32:01;6.25;89.71
12907;DHT22;6521;50.498;8.474;2024-03-06T04:34:31;6.20;89.70
12907;DHT22;6521;50.498;8.474;2024-03-06T04:37:04;6.21;89.72
12907;DHT22;6521;50.498;8.474;2024-03-06T04:39:36;6.20;89.69
12907;DHT22;6521;50.498;8.474;2024-03-06T04:42:11;6.21;89.67
12907;DHT22;6521;50.498;8.474;2024-03-06T04:44:41;6.08;89.72
12907;DHT22;6521;50.498;8.474;2024-03-06T04:47:13;6.03;89.76
12907;DHT22;6521;50.498;8.474;2024-03-06T04:49:44;5.98;89.85
12907;DHT22;6521;50.498;8.474;2024-03-06T04:52:16;6.00;89.86
12907;DHT22;6521;50.498;8.474;2024-03-06T04:54:49;6.03;89.99
12907;DHT22;6521;50.498;8.474;2024-03-06T04:57:19;6.10;89.98
12907;DHT22;6521;50.498;8.474;2024-03-06T04:59:51;6.08;89.94
12907;DHT22;6521;50.498;8.474;2024-03-06T05:02:23;6.04;89.88
12907;DHT22;6521;50.498;8.474;2024-03-06T05:04:54;6.01;89.91
12907;DHT22;6521;50.498;8.474;2024-03-06T05:07:26;6.01;89.93
12907;DHT22;6521;50.498;8.474;2024-03-06T05:10:01;6.03;89.97
12907;DHT22;6521;50.498;8.474;2024-03-06T05:12:32;6.03;89.94
12907;DHT22;6521;50.498;8.474;2024-03-06T05:15:03;6.01;89.80
12907;DHT22;6521;50.498;8.474;2024-03-06T05:17:34;5.94;89.88
12907;DHT22;6521;50.498;8.474;2024-03-06T05:20:06;5.86;90.02
12907;DHT22;6521;50.498;8.474;2024-03-06T05:22:37;5.90;90.11
12907;DHT22;6521;50.498;8.474;2024-03-06T05:25:07;5.90;90.18
12907;DHT22;6521;50.498;8.474;2024-03-06T05:27:39;5.91;90.16
12907;DHT22;6521;50.498;8.474;2024-03-06T05:30:10;5.95;90.17
12907;DHT22;6521;50.498;8.474;2024-03-06T05:32:42;5.95;90.06
12907;DHT22;6521;50.498;8.474;2024-03-06T05:35:13;5.97;90.06
12907;DHT22;6521;50.498;8.474;2024-03-06T05:37:45;5.94;90.09
12907;DHT22;6521;50.498;8.474;2024-03-06T05:40:18;5.95;90.09
12907;DHT22;6521;50.498;8.474;2024-03-06T05:42:49;5.93;90.01
12907;DHT22;6521;50.498;8.474;2024-03-06T05:45:19;5.90;90.04
12907;DHT22;6521;50.498;8.474;2024-03-06T05:47:51;5.84;89.98
12907;DHT22;6521;50.498;8.474;2024-03-06T05:50:24;5.83;89.94
12907;DHT22;6521;50.498;8.474;2024-03-06T05:52:59;5.74;90.00
12907;DHT22;6521;50.498;8.474;2024-03-06T05:55:33;5.77;90.07
12907;DHT22;6521;50.498;8.474;2024-03-06T05:58:07;5.83;90.09
12907;DHT22;6521;50.498;8.474;2024-03-06T06:00:39;5.81;90.05
12907;DHT22;6521;50.498;8.474;2024-03-06T06:03:10;5.81;90.18
12907;DHT22;6521;50.498;8.474;2024-03-06T06:05:42;5.89;90.11
12907;DHT22;6521;50.498;8.474;2024-03-06T06:08:15;5.91;90.06
12907;DHT22;6521;50.498;8.474;2024-03-06T06:10:49;5.90;90.04
12907;DHT22;6521;50.498;8.474;2024-03-06T06:13:24;5.89;90.02
12907;DHT22;6521;50.498;8.474;2024-03-06T06:15:58;5.78;89.99
12907;DHT22;6521;50.498;8.474;2024-03-06T06:18:30;5.74;89.98
12907;DHT22;6521;50.498;8.474;2024-03-06T06:21:04;5.74;90.01
12907;DHT22;6521;50.498;8.474;2024-03-06T06:23:42;5.64;89.99
12907;DHT22;6521;50.498;8.474;2024-03-06T06:26:14;5.73;90.08
12907;DHT22;6521;50.498;8.474;2024-03-06T06:28:46;5.76;89.97
12907;DHT22;6521;50.498;8.474;2024-03-06T06:31:17;5.71;90.00
12907;DHT22;6521;50.498;8.474;2024-03-06T06:33:47;5.63;90.08
12907;DHT22;6521;50.498;8.474;2024-03-06T06:36:19;5.69;90.13
12907;DHT22;6521;50.498;8.474;2024-03-06T06:38:51;5.78;90.04
12907;DHT22;6521;50.498;8.474;2024-03-06T06:41:22;5.73;89.93
12907;DHT22;6521;50.498;8.474;2024-03-06T06:43:53;5.73;90.09
12907;DHT22;6521;50.498;8.474;2024-03-06T06:46:24;5.80;90.06
12907;DHT22;6521;50.498;8.474;2024-03-06T06:48:55;5.89;89.90
12907;DHT22;6521;50.498;8.474;2024-03-06T06:51:25;5.81;89.80
12907;DHT22;6521;50.498;8.474;2024-03-06T06:53:57;5.76;89.72
12907;DHT22;6521;50.498;8.474;2024-03-06T06:56:30;5.62;89.79
12907;DHT22;6521;50.498;8.474;2024-03-06T06:59:01;5.66;89.83
12907;DHT22;6521;50.498;8.474;2024-03-06T07:01:35;5.67;89.87
12907;DHT22;6521;50.498;8.474;2024-03-06T07:04:06;5.70;90.01
12907;DHT22;6521;50.498;8.474;2024-03-06T07:06:37;5.73;89.91
12907;DHT22;6521;50.498;8.474;2024-03-06T07:09:08;5.73;89.88
12907;DHT22;6521;50.498;8.474;2024-03-06T07:11:39;5.71;89.93
12907;DHT22;6521;50.498;8.474;2024-03-06T07:14:12;5.76;89.87
12907;DHT22;6521;50.498;8.474;2024-03-06T07:16:43;5.78;89.71
12907;DHT22;6521;50.498;8.474;2024-03-06T07:19:15;5.70;89.77
12907;DHT22;6521;50.498;8.474;2024-03-06T07:21:48;5.76;89.83
12907;DHT22;6521;50.498;8.474;2024-03-06T07:24:19;5.87;89.66
12907;DHT22;6521;50.498;8.474;2024-03-06T07:26:51;5.87;89.58
12907;DHT22;6521;50.498;8.474;2024-03-06T07:29:22;5.77;89.73
12907;DHT22;6521;50.498;8.474;2024-03-06T07:31:53;5.80;89.84
12907;DHT22;6521;50.498;8.474;2024-03-06T07:34:24;5.86;89.89
12907;DHT22;6521;50.498;8.474;2024-03-06T07:36:55;5.90;89.87
12907;DHT22;6521;50.498;8.474;2024-03-06T07:39:31;6.00;89.93
12907;DHT22;6521;50.498;8.474;2024-03-06T07:42:02;6.13;89.81
12907;DHT22;6521;50.498;8.474;2024-03-06T07:44:36;6.20;89.57
12907;DHT22;6521;50.498;8.474;2024-03-06T07:47:07;6.13;89.61
12907;DHT22;6521;50.498;8.474;2024-03-06T07:49:41;6.21;89.70
12907;DHT22;6521;50.498;8.474;2024-03-06T07:52:15;6.29;89.79
12907;DHT22;6521;50.498;8.474;2024-03-06T07:54:47;6.46;89.69
12907;DHT22;6521;50.498;8.474;2024-03-06T07:57:18;6.57;89.61
12907;DHT22;6521;50.498;8.474;2024-03-06T07:59:49;6.63;89.45
12907;DHT22;6521;50.498;8.474;2024-03-06T08:02:22;6.75;89.32
12907;DHT22;6521;50.498;8.474;2024-03-06T08:04:53;6.72;89.14
12907;DHT22;6521;50.498;8.474;2024-03-06T08:07:23;6.75;89.26
12907;DHT22;6521;50.498;8.474;2024-03-06T08:09:54;6.82;89.16
12907;DHT22;6521;50.498;8.474;2024-03-06T08:12:27;6.89;89.03
12907;DHT22;6521;50.498;8.474;2024-03-06T08:14:57;7.03;88.82
12907;DHT22;6521;50.498;8.474;2024-03-06T08:17:28;7.01;88.47
12907;DHT22;6521;50.498;8.474;2024-03-06T08:20:04;6.99;88.04
12907;DHT22;6521;50.498;8.474;2024-03-06T08:22:39;6.87;88.26
12907;DHT22;6521;50.498;8.474;2024-03-06T08:25:11;6.89;88.53
12907;DHT22;6521;50.498;8.474;2024-03-06T08:27:43;7.03;88.54
12907;DHT22;6521;50.498;8.474;2024-03-06T08:30:15;7.13;88.32
12907;DHT22;6521;50.498;8.474;2024-03-06T08:32:46;7.13;87.89
12907;DHT22;6521;50.498;8.474;2024-03-06T08:35:17;7.18;87.74
12907;DHT22;6521;50.498;8.474;2024-03-06T08:37:52;7.24;87.98
12907;DHT22;6521;50.498;8.474;2024-03-06T08:40:22;7.35;87.96
12907;DHT22;6521;50.498;8.474;2024-03-06T08:42:54;7.34;87.81
12907;DHT22;6521;50.498;8.474;2024-03-06T08:45:26;7.40;87.65
12907;DHT22;6521;50.498;8.474;2024-03-06T08:47:56;7.35;87.61
12907;DHT22;6521;50.498;8.474;2024-03-06T08:50:36;7.30;87.10
12907;DHT22;6521;50.498;8.474;2024-03-06T08:53:07;7.36;87.19
12907;DHT22;6521;50.498;8.474;2024-03-06T08:55:39;7.47;87.38
12907;DHT22;6521;50.498;8.474;2024-03-06T08:58:10;7.73;87.51
12907;DHT22;6521;50.498;8.474;2024-03-06T09:00:46;7.79;86.68
12907;DHT22;6521;50.498;8.474;2024-03-06T09:03:18;7.78;86.25
12907;DHT22;6521;50.498;8.474;2024-03-06T09:05:49;7.78;86.58
12907;DHT22;6521;50.498;8.474;2024-03-06T09:08:21;7.86;86.67
12907;DHT22;6521;50.498;8.474;2024-03-06T09:10:52;7.87;86.53
12907;DHT22;6521;50.498;8.474;2024-03-06T09:13:23;7.83;86.19
12907;DHT22;6521;50.498;8.474;2024-03-06T09:15:54;7.99;86.47
12907;DHT22;6521;50.498;8.474;2024-03-06T09:18:28;7.82;85.76
12907;DHT22;6521;50.498;8.474;2024-03-06T09:20:59;7.93;86.13
12907;DHT22;6521;50.498;8.474;2024-03-06T09:23:37;8.09;86.10
12907;DHT22;6521;50.498;8.474;2024-03-06T09:26:08;8.26;86.03
12907;DHT22;6521;50.498;8.474;2024-03-06T09:28:39;8.41;85.86
12907;DHT22;6521;50.498;8.474;2024-03-06T09:31:12;8.58;85.57
12907;DHT22;6521;50.498;8.474;2024-03-06T09:33:44;8.81;85.42
12907;DHT22;6521;50.498;8.474;2024-03-06T09:36:16;8.93;85.10
12907;DHT22;6521;50.498;8.474;2024-03-06T09:38:47;8.96;84.53
12907;DHT22;6521;50.498;8.474;2024-03-06T09:41:19;8.99;83.94
12907;DHT22;6521;50.498;8.474;2024-03-06T09:43:52;9.20;84.17
12907;DHT22;6521;50.498;8.474;2024-03-06T09:46:26;9.62;84.94
12907;DHT22;6521;50.498;8.474;2024-03-06T09:48:57;10.35;84.40
12907;DHT22;6521;50.498;8.474;2024-03-06T09:51:31;10.91;83.15
12907;DHT22;6521;50.498;8.474;2024-03-06T09:54:03;11.42;81.02
12907;DHT22;6521;50.498;8.474;2024-03-06T09:56:35;11.79;79.23
12907;DHT22;6521;50.498;8.474;2024-03-06T09:59:07;12.21;79.49
12907;DHT22;6521;50.498;8.474;2024-03-06T10:01:47;12.33;76.70
12907;DHT22;6521;50.498;8.474;2024-03-06T10:04:25;12.34;75.47
12907;DHT22;6521;50.498;8.474;2024-03-06T10:06:59;12.23;74.57
12907;DHT22;6521;50.498;8.474;2024-03-06T10:09:32;11.83;73.01
12907;DHT22;6521;50.498;8.474;2024-03-06T10:12:03;11.39;73.51
12907;DHT22;6521;50.498;8.474;2024-03-06T10:14:36;11.28;75.46
12907;DHT22;6521;50.498;8.474;2024-03-06T10:17:06;11.63;75.55
12907;DHT22;6521;50.498;8.474;2024-03-06T10:19:39;12.20;75.07
12907;DHT22;6521;50.498;8.474;2024-03-06T10:22:10;12.48;73.77
12907;DHT22;6521;50.498;8.474;2024-03-06T10:24:41;12.73;71.49
12907;DHT22;6521;50.498;8.474;2024-03-06T10:27:17;12.83;70.46
12907;DHT22;6521;50.498;8.474;2024-03-06T10:30:01;12.73;70.30
12907;DHT22;6521;50.498;8.474;2024-03-06T10:32:34;12.51;70.43
12907;DHT22;6521;50.498;8.474;2024-03-06T10:35:17;12.10;71.27
12907;DHT22;6521;50.498;8.474;2024-03-06T10:37:48;11.80;71.88
12907;DHT22;6521;50.498;8.474;2024-03-06T10:40:22;11.56;72.32
12907;DHT22;6521;50.498;8.474;2024-03-06T10:42:55;11.55;72.74
12907;DHT22;6521;50.498;8.474;2024-03-06T10:45:47;11.96;74.24
12907;DHT22;6521;50.498;8.474;2024-03-06T10:48:19;12.76;73.12
12907;DHT22;6521;50.498;8.474;2024-03-06T10:50:52;13.33;71.61
12907;DHT22;6521;50.498;8.474;2024-03-06T10:53:26;13.83;68.40
12907;DHT22;6521;50.498;8.474;2024-03-06T10:56:02;14.33;65.09
12907;DHT22;6521;50.498;8.474;2024-03-06T10:58:34;14.76;64.09
12907;DHT22;6521;50.498;8.474;2024-03-06T11:01:06;14.87;64.17
12907;DHT22;6521;50.498;8.474;2024-03-06T11:03:38;15.09;63.63
12907;DHT22;6521;50.498;8.474;2024-03-06T11:06:10;15.27;61.39
12907;DHT22;6521;50.498;8.474;2024-03-06T11:08:41;14.99;59.31
12907;DHT22;6521;50.498;8.474;2024-03-06T11:11:24;15.07;61.16
12907;DHT22;6521;50.498;8.474;2024-03-06T11:14:04;14.97;61.33
12907;DHT22;6521;50.498;8.474;2024-03-06T11:16:59;14.95;62.13
12907;DHT22;6521;50.498;8.474;2024-03-06T11:20:17;14.78;61.12
12907;DHT22;6521;50.498;8.474;2024-03-06T11:28:29;14.67;60.94
12907;DHT22;6521;50.498;8.474;2024-03-06T11:31:05;14.81;59.41
12907;DHT22;6521;50.498;8.474;2024-03-06T11:33:46;14.78;59.40
12907;DHT22;6521;50.498;8.474;2024-03-06T11:36:25;14.55;59.97
12907;DHT22;6521;50.498;8.474;2024-03-06T11:39:05;14.36;60.69
12907;DHT22;6521;50.498;8.474;2024-03-06T11:44:21;15.15;60.13
12907;DHT22;6521;50.498;8.474;2024-03-06T11:47:03;15.48;60.13
12907;DHT22;6521;50.498;8.474;2024-03-06T11:49:36;15.63;57.67
12907;DHT22;6521;50.498;8.474;2024-03-06T11:52:08;15.07;57.89
12907;DHT22;6521;50.498;8.474;2024-03-06T11:54:40;15.19;59.26
12907;DHT22;6521;50.498;8.474;2024-03-06T11:57:14;15.62;59.30
12907;DHT22;6521;50.498;8.474;2024-03-06T11:59:47;15.73;58.62
12907;DHT22;6521;50.498;8.474;2024-03-06T12:02:18;15.85;57.08
12907;DHT22;6521;50.498;8.474;2024-03-06T12:04:49;15.70;57.67
12907;DHT22;6521;50.498;8.474;2024-03-06T12:07:22;15.82;58.26
12907;DHT22;6521;50.498;8.474;2024-03-06T12:09:54;15.90;57.33
12907;DHT22;6521;50.498;8.474;2024-03-06T12:12:30;15.48;56.72
12907;DHT22;6521;50.498;8.474;2024-03-06T12:15:14;14.91;57.68
12907;DHT22;6521;50.498;8.474;2024-03-06T12:17:55;14.41;59.42
12907;DHT22;6521;50.498;8.474;2024-03-06T12:20:26;13.98;59.86
12907;DHT22;6521;50.498;8.474;2024-03-06T12:22:58;13.75;60.80
12907;DHT22;6521;50.498;8.474;2024-03-06T12:25:29;13.86;61.02
12907;DHT22;6521;50.498;8.474;2024-03-06T12:28:06;14.46;61.16
12907;DHT22;6521;50.498;8.474;2024-03-06T12:30:41;14.73;60.08
12907;DHT22;6521;50.498;8.474;2024-03-06T12:33:17;14.59;60.19
12907;DHT22;6521;50.498;8.474;2024-03-06T12:36:01;14.33;60.01
12907;DHT22;6521;50.498;8.474;2024-03-06T12:38:33;13.95;60.63
12907;DHT22;6521;50.498;8.474;2024-03-06T12:41:05;13.60;61.46
12907;DHT22;6521;50.498;8.474;2024-03-06T12:43:37;13.40;61.48
12907;DHT22;6521;50.498;8.474;2024-03-06T12:46:08;13.23;62.53
12907;DHT22;6521;50.498;8.474;2024-03-06T12:48:39;13.44;63.28
12907;DHT22;6521;50.498;8.474;2024-03-06T12:51:10;13.54;62.55
12907;DHT22;6521;50.498;8.474;2024-03-06T12:53:44;13.55;62.38
12907;DHT22;6521;50.498;8.474;2024-03-06T12:56:18;13.39;61.71
12907;DHT22;6521;50.498;8.474;2024-03-06T12:58:49;13.23;61.77
12907;DHT22;6521;50.498;8.474;2024-03-06T13:01:30;13.12;63.11
12907;DHT22;6521;50.498;8.474;2024-03-06T13:04:03;13.07;63.93
12907;DHT22;6521;50.498;8.474;2024-03-06T13:06:37;13.65;64.43
12907;DHT22;6521;50.498;8.474;2024-03-06T13:09:12;14.30;62.85
12907;DHT22;6521;50.498;8.474;2024-03-06T13:11:43;14.73;61.27
12907;DHT22;6521;50.498;8.474;2024-03-06T13:14:18;14.94;60.18
12907;DHT22;6521;50.498;8.474;2024-03-06T13:16:50;14.99;59.65
12907;DHT22;6521;50.498;8.474;2024-03-06T13:19:22;14.76;59.87
12907;DHT22;6521;50.498;8.474;2024-03-06T13:21:55;14.73;60.06
12907;DHT22;6521;50.498;8.474;2024-03-06T13:24:27;14.55;59.68
12907;DHT22;6521;50.498;8.474;2024-03-06T13:27:00;14.32;60.29
12907;DHT22;6521;50.498;8.474;2024-03-06T13:29:31;14.19;58.41
12907;DHT22;6521;50.498;8.474;2024-03-06T13:32:01;13.94;58.11
12907;DHT22;6521;50.498;8.474;2024-03-06T13:34:32;13.68;59.57
12907;DHT22;6521;50.498;8.474;2024-03-06T13:37:04;13.46;61.08
12907;DHT22;6521;50.498;8.474;2024-03-06T13:39:36;13.44;62.10
12907;DHT22;6521;50.498;8.474;2024-03-06T13:42:08;13.85;63.58
12907;DHT22;6521;50.498;8.474;2024-03-06T13:44:40;14.40;60.10
12907;DHT22;6521;50.498;8.474;2024-03-06T13:47:17;14.90;58.54
12907;DHT22;6521;50.498;8.474;2024-03-06T13:50:15;15.01;57.02
12907;DHT22;6521;50.498;8.474;2024-03-06T13:52:47;14.94;58.08
12907;DHT22;6521;50.498;8.474;2024-03-06T13:55:18;14.87;57.85
12907;DHT22;6521;50.498;8.474;2024-03-06T13:57:53;15.01;58.35
12907;DHT22;6521;50.498;8.474;2024-03-06T14:00:24;15.17;58.31
12907;DHT22;6521;50.498;8.474;2024-03-06T14:02:57;15.32;56.86
12907;DHT22;6521;50.498;8.474;2024-03-06T14:05:28;15.34;57.04
12907;DHT22;6521;50.498;8.474;2024-03-06T14:07:59;15.34;57.46
12907;DHT22;6521;50.498;8.474;2024-03-06T14:10:30;15.46;56.72
12907;DHT22;6521;50.498;8.474;2024-03-06T14:13:04;15.69;55.91
12907;DHT22;6521;50.498;8.474;2024-03-06T14:15:35;15.89;55.85
12907;DHT22;6521;50.498;8.474;2024-03-06T14:18:08;16.04;54.22
12907;DHT22;6521;50.498;8.474;2024-03-06T14:20:39;16.04;54.37
12907;DHT22;6521;50.498;8.474;2024-03-06T14:23:13;16.03;54.03
12907;DHT22;6521;50.498;8.474;2024-03-06T14:25:44;16.00;54.40
12907;DHT22;6521;50.498;8.474;2024-03-06T14:28:15;15.79;53.98
12907;DHT22;6521;50.498;8.474;2024-03-06T14:30:46;15.50;54.92
12907;DHT22;6521;50.498;8.474;2024-03-06T14:33:18;15.49;56.03
12907;DHT22;6521;50.498;8.474;2024-03-06T14:35:50;15.18;55.14
12907;DHT22;6521;50.498;8.474;2024-03-06T14:38:21;14.70;56.07
12907;DHT22;6521;50.498;8.474;2024-03-06T14:40:52;14.44;57.55
12907;DHT22;6521;50.498;8.474;2024-03-06T14:43:23;14.57;57.90
12907;DHT22;6521;50.498;8.474;2024-03-06T14:45:54;14.80;56.35
12907;DHT22;6521;50.498;8.474;2024-03-06T14:48:25;14.87;55.59
12907;DHT22;6521;50.498;8.474;2024-03-06T14:50:56;14.81;55.72
12907;DHT22;6521;50.498;8.474;2024-03-06T14:53:28;14.70;55.73
12907;DHT22;6521;50.498;8.474;2024-03-06T14:56:05;14.47;56.42
12907;DHT22;6521;50.498;8.474;2024-03-06T14:58:36;14.08;56.86
12907;DHT22;6521;50.498;8.474;2024-03-06T15:01:08;13.57;57.03
12907;DHT22;6521;50.498;8.474;2024-03-06T15:03:40;13.37;58.57
12907;DHT22;6521;50.498;8.474;2024-03-06T15:06:11;13.46;58.61
12907;DHT22;6521;50.498;8.474;2024-03-06T15:08:43;13.30;58.35
12907;DHT22;6521;50.498;8.474;2024-03-06T15:11:16;13.22;59.15
12907;DHT22;6521;50.498;8.474;2024-03-06T15:13:47;13.09;59.10
12907;DHT22;6521;50.498;8.474;2024-03-06T15:16:20;12.89;59.84
12907;DHT22;6521;50.498;8.474;2024-03-06T15:18:52;12.62;61.71
12907;DHT22;6521;50.498;8.474;2024-03-06T15:21:26;12.46;62.40
12907;DHT22;6521;50.498;8.474;2024-03-06T15:23:59;12.40;62.89
12907;DHT22;6521;50.498;8.474;2024-03-06T15:26:31;12.28;63.56
12907;DHT22;6521;50.498;8.474;2024-03-06T15:29:03;12.16;62.67
12907;DHT22;6521;50.498;8.474;2024-03-06T15:31:35;12.03;62.86
12907;DHT22;6521;50.498;8.474;2024-03-06T15:34:06;11.93;62.21
12907;DHT22;6521;50.498;8.474;2024-03-06T15:36:37;11.90;62.37
12907;DHT22;6521;50.498;8.474;2024-03-06T15:39:08;11.83;62.38
12907;DHT22;6521;50.498;8.474;2024-03-06T15:41:42;11.70;62.53
12907;DHT22;6521;50.498;8.474;2024-03-06T15:44:15;11.61;63.42
12907;DHT22;6521;50.498;8.474;2024-03-06T15:46:46;11.58;63.44
12907;DHT22;6521;50.498;8.474;2024-03-06T15:49:22;11.58;63.31
12907;DHT22;6521;50.498;8.474;2024-03-06T15:51:57;11.52;63.14
12907;DHT22;6521;50.498;8.474;2024-03-06T15:54:28;11.38;63.36
12907;DHT22;6521;50.498;8.474;2024-03-06T15:56:59;11.32;63.73
12907;DHT22;6521;50.498;8.474;2024-03-06T15:59:32;11.19;64.28
12907;DHT22;6521;50.498;8.474;2024-03-06T16:02:04;11.14;64.65
12907;DHT22;6521;50.498;8.474;2024-03-06T16:04:35;11.08;65.14
12907;DHT22;6521;50.498;8.474;2024-03-06T16:07:06;11.05;65.04
12907;DHT22;6521;50.498;8.474;2024-03-06T16:09:42;10.91;65.55
12907;DHT22;6521;50.498;8.474;2024-03-06T16:12:21;10.83;66.25
12907;DHT22;6521;50.498;8.474;2024-03-06T16:14:53;10.83;66.94
12907;DHT22;6521;50.498;8.474;2024-03-06T16:17:24;10.73;67.27
12907;DHT22;6521;50.498;8.474;2024-03-06T16:20:00;10.60;67.77
12907;DHT22;6521;50.498;8.474;2024-03-06T16:22:39;10.52;68.66
12907;DHT22;6521;50.498;8.474;2024-03-06T16:25:12;10.40;68.78
12907;DHT22;6521;50.498;8.474;2024-03-06T16:27:42;10.33;68.57
12907;DHT22;6521;50.498;8.474;2024-03-06T16:30:16;10.23;68.56
12907;DHT22;6521;50.498;8.474;2024-03-06T16:32:47;10.16;68.73
12907;DHT22;6521;50.498;8.474;2024-03-06T16:35:19;10.10;68.90
12907;DHT22;6521;50.498;8.474;2024-03-06T16:37:51;10.05;69.14